createdAt,value
2022-12-16T00:01:25.628Z,123.90
2022-12-16T00:03:55.777Z,116.73
2022-12-16T00:06:25.670Z,112.37
2022-12-16T00:08:52.793Z,123.37
2022-12-16T00:11:20.868Z,117.90
2022-12-16T00:13:48.061Z,145.10
2022-12-16T00:16:17.303Z,169.40
2022-12-16T00:18:45.335Z,195.80
2022-12-16T00:21:12.741Z,121.97
2022-12-16T00:23:41.813Z,122.73
2022-12-16T00:26:09.253Z,111.63
2022-12-16T00:28:37.221Z,119.20
2022-12-16T00:31:04.985Z,119.97
2022-12-16T00:33:33.619Z,133.47
2022-12-16T00:36:00.654Z,113.80
2022-12-16T00:38:27.755Z,121.27
2022-12-16T00:40:54.904Z,121.80
2022-12-16T00:43:22.434Z,120.70
2022-12-16T00:45:49.452Z,119.57
2022-12-16T00:48:23.242Z,123.00
2022-12-16T00:50:51.927Z,140.87
2022-12-16T00:53:20.465Z,128.03
2022-12-16T00:55:47.313Z,128.43
2022-12-16T00:58:14.589Z,141.60
2022-12-16T01:00:41.549Z,136.97
2022-12-16T01:03:08.857Z,130.90
2022-12-16T01:05:38.232Z,156.80
2022-12-16T01:08:05.999Z,146.70
2022-12-16T01:10:32.891Z,137.83
2022-12-16T01:13:00.044Z,148.33
2022-12-16T01:15:27.130Z,133.13
2022-12-16T01:17:54.311Z,123.40
2022-12-16T01:20:22.273Z,126.63
2022-12-16T01:22:49.634Z,120.03
2022-12-16T01:25:17.743Z,118.93
2022-12-16T01:27:44.769Z,127.30
2022-12-16T01:30:11.891Z,129.77
2022-12-16T01:32:39.122Z,136.07
2022-12-16T01:35:18.032Z,141.53
2022-12-16T01:37:53.220Z,142.40
2022-12-16T01:40:24.700Z,125.57
2022-12-16T01:42:51.748Z,112.63
2022-12-16T01:45:24.959Z,126.77
2022-12-16T01:47:54.934Z,122.00
2022-12-16T01:50:22.447Z,119.17
2022-12-16T01:52:56.243Z,110.37
2022-12-16T01:55:28.519Z,122.60
2022-12-16T01:58:11.376Z,132.13
2022-12-16T02:00:40.038Z,127.77
2022-12-16T02:03:07.988Z,125.53
2022-12-16T02:05:40.243Z,117.73
2022-12-16T02:08:12.690Z,123.97
2022-12-16T02:10:42.735Z,112.60
2022-12-16T02:13:26.466Z,138.27
2022-12-16T02:16:17.175Z,145.23
2022-12-16T02:19:02.458Z,148.23
2022-12-16T02:21:39.058Z,153.27
2022-12-16T02:24:15.056Z,141.30
2022-12-16T02:26:58.103Z,143.00
2022-12-16T02:29:56.372Z,150.40
2022-12-16T02:32:49.706Z,129.77
2022-12-16T02:35:19.720Z,140.87
2022-12-16T02:37:58.341Z,122.13
2022-12-16T02:40:49.037Z,135.60
2022-12-16T02:43:41.041Z,143.60
2022-12-16T02:46:08.854Z,141.40
2022-12-16T02:48:35.675Z,130.00
2022-12-16T02:51:03.146Z,140.47
2022-12-16T02:53:32.936Z,131.80
2022-12-16T02:56:38.185Z,130.60
2022-12-16T02:59:24.457Z,130.87
2022-12-16T03:02:12.433Z,129.60
2022-12-16T03:04:51.003Z,131.57
2022-12-16T03:07:21.528Z,124.87
2022-12-16T03:09:50.298Z,126.80
2022-12-16T03:12:21.961Z,130.13
2022-12-16T03:14:53.317Z,124.27
2022-12-16T03:17:23.516Z,124.87
2022-12-16T03:20:01.650Z,118.43
2022-12-16T03:22:33.012Z,137.57
2022-12-16T03:24:59.732Z,129.17
2022-12-16T03:27:40.379Z,134.43
2022-12-16T03:30:13.231Z,127.77
2022-12-16T03:32:45.655Z,129.33
2022-12-16T03:35:19.586Z,123.90
2022-12-16T03:37:49.944Z,115.27
2022-12-16T03:40:17.942Z,123.03
2022-12-16T03:42:46.984Z,127.60
2022-12-16T03:45:22.742Z,124.37
2022-12-16T03:47:53.552Z,111.73
2022-12-16T03:50:26.825Z,127.13
2022-12-16T03:52:53.856Z,121.53
2022-12-16T03:55:20.702Z,127.93
2022-12-16T03:57:47.737Z,120.50
2022-12-16T04:00:15.232Z,115.03
2022-12-16T04:02:42.712Z,113.13
2022-12-16T04:05:10.488Z,118.23
2022-12-16T04:07:37.533Z,120.83
2022-12-16T04:10:05.951Z,118.93
2022-12-16T04:12:51.768Z,115.53
2022-12-16T04:15:18.662Z,99.63
2022-12-16T04:18:04.712Z,118.23
2022-12-16T04:20:58.131Z,96.30
2022-12-16T04:23:47.132Z,96.57
2022-12-16T04:26:14.173Z,101.50
2022-12-16T04:28:41.179Z,108.43
2022-12-16T04:31:08.421Z,121.63
2022-12-16T04:33:54.287Z,107.20
2022-12-16T04:36:39.684Z,104.73
2022-12-16T04:39:25.537Z,104.20
2022-12-16T04:42:14.280Z,110.30
2022-12-16T04:44:59.867Z,115.67
2022-12-16T04:47:45.606Z,113.97
2022-12-16T04:50:31.490Z,116.67
2022-12-16T04:53:16.871Z,126.17
2022-12-16T04:56:16.288Z,132.73
2022-12-16T04:59:01.826Z,113.27
2022-12-16T05:01:47.640Z,120.53
2022-12-16T05:04:32.964Z,122.27
2022-12-16T05:07:18.475Z,116.20
2022-12-16T05:10:03.630Z,129.67
2022-12-16T05:12:49.497Z,118.37
2022-12-16T05:15:36.651Z,125.60
2022-12-16T05:18:29.610Z,127.47
2022-12-16T05:21:17.177Z,134.30
2022-12-16T05:24:03.399Z,131.73
2022-12-16T05:26:48.951Z,129.13
2022-12-16T05:29:34.672Z,127.33
2022-12-16T05:32:19.972Z,122.03
2022-12-16T05:35:05.571Z,133.93
2022-12-16T05:37:50.775Z,126.20
2022-12-16T05:40:36.442Z,135.73
2022-12-16T05:43:21.743Z,135.70
2022-12-16T05:46:07.541Z,131.50
2022-12-16T05:48:52.889Z,123.93
2022-12-16T05:51:38.486Z,134.77
2022-12-16T05:54:24.290Z,133.77
2022-12-16T05:57:10.010Z,143.17
2022-12-16T05:59:55.454Z,129.53
2022-12-16T06:02:41.084Z,148.20
2022-12-16T06:05:26.571Z,134.93
2022-12-16T06:08:12.961Z,140.50
2022-12-16T06:10:58.302Z,139.67
2022-12-16T06:13:43.946Z,134.77
2022-12-16T06:16:29.424Z,130.93
2022-12-16T06:19:15.266Z,141.43
2022-12-16T06:22:00.726Z,136.77
2022-12-16T06:24:46.016Z,133.37
2022-12-16T06:27:32.233Z,127.93
2022-12-16T06:30:18.021Z,141.10
2022-12-16T06:33:03.529Z,139.67
2022-12-16T06:35:49.234Z,123.07
2022-12-16T06:38:34.325Z,134.30
2022-12-16T06:41:19.816Z,157.37
2022-12-16T06:44:05.206Z,190.97
2022-12-16T06:46:55.373Z,240.13
2022-12-16T06:49:40.978Z,200.07
2022-12-16T06:52:26.824Z,165.17
2022-12-16T06:55:12.232Z,141.70
2022-12-16T06:57:59.228Z,135.37
2022-12-16T07:00:45.074Z,138.50
2022-12-16T07:03:35.583Z,150.10
2022-12-16T07:06:21.515Z,130.90
2022-12-16T07:09:07.096Z,134.80
2022-12-16T07:11:52.153Z,137.00
2022-12-16T07:14:37.894Z,145.87
2022-12-16T07:17:24.008Z,135.37
2022-12-16T07:20:15.836Z,132.20
2022-12-16T07:23:10.727Z,142.27
2022-12-16T07:26:03.313Z,135.13
2022-12-16T07:28:48.723Z,159.87
2022-12-16T07:31:34.575Z,151.10
2022-12-16T07:34:20.113Z,140.33
2022-12-16T07:37:06.053Z,179.60
2022-12-16T07:39:55.089Z,165.07
2022-12-16T07:42:41.798Z,175.27
2022-12-16T07:45:28.480Z,149.13
2022-12-16T07:48:15.005Z,167.97
2022-12-16T07:51:00.637Z,175.40
2022-12-16T07:53:46.817Z,194.87
2022-12-16T07:56:32.456Z,215.07
2022-12-16T07:59:18.279Z,191.30
2022-12-16T08:02:03.963Z,190.03
2022-12-16T08:04:49.676Z,203.80
2022-12-16T08:07:35.104Z,206.57
2022-12-16T08:10:21.137Z,203.97
2022-12-16T08:13:06.614Z,231.87
2022-12-16T08:15:52.546Z,214.87
2022-12-16T08:18:38.309Z,247.73
2022-12-16T08:21:24.246Z,257.63
2022-12-16T08:24:09.970Z,258.13
2022-12-16T08:26:55.661Z,227.07
2022-12-16T08:29:45.168Z,189.13
2022-12-16T08:32:33.129Z,186.70
2022-12-16T08:35:18.945Z,243.70
2022-12-16T08:38:12.045Z,214.77
2022-12-16T08:41:01.109Z,221.70
2022-12-16T08:43:52.321Z,212.23
2022-12-16T08:46:38.322Z,217.97
2022-12-16T08:49:24.641Z,175.40
2022-12-16T08:52:10.480Z,193.47
2022-12-16T08:54:56.127Z,193.87
2022-12-16T08:57:41.833Z,200.30
2022-12-16T09:00:27.633Z,214.07
2022-12-16T09:03:17.634Z,216.30
2022-12-16T09:06:04.185Z,245.63
2022-12-16T09:08:49.534Z,249.27
2022-12-16T09:11:34.960Z,250.70
2022-12-16T09:14:20.319Z,242.33
2022-12-16T09:17:06.864Z,254.77
2022-12-16T09:19:52.118Z,248.10
2022-12-16T09:22:39.529Z,254.83
2022-12-16T09:25:25.497Z,275.37
2022-12-16T09:28:10.970Z,286.13
2022-12-16T09:30:56.432Z,239.30
2022-12-16T09:33:42.041Z,218.33
2022-12-16T09:36:27.489Z,201.20
2022-12-16T09:39:13.043Z,195.33
2022-12-16T09:42:04.451Z,161.77
2022-12-16T09:45:02.998Z,174.27
2022-12-16T09:48:08.788Z,181.83
2022-12-16T09:50:59.293Z,181.07
2022-12-16T09:53:46.743Z,160.90
2022-12-16T09:56:41.199Z,156.97
2022-12-16T09:59:33.821Z,157.63
2022-12-16T10:02:20.393Z,152.87
2022-12-16T10:05:10.614Z,152.53
2022-12-16T10:08:03.463Z,146.07
2022-12-16T10:11:25.255Z,144.30
2022-12-16T10:14:23.715Z,157.53
2022-12-16T10:17:26.065Z,141.43
2022-12-16T10:20:26.029Z,149.27
2022-12-16T10:23:27.633Z,149.40
2022-12-16T10:26:26.314Z,149.20
2022-12-16T10:29:23.658Z,165.40
2022-12-16T10:32:09.308Z,157.97
2022-12-16T10:34:57.581Z,164.10
2022-12-16T10:37:53.204Z,172.50
2022-12-16T10:40:44.087Z,172.77
2022-12-16T10:43:52.979Z,169.30
2022-12-16T10:46:47.352Z,157.80
2022-12-16T10:49:34.807Z,153.57
2022-12-16T10:52:20.573Z,161.97
2022-12-16T10:55:21.677Z,156.07
2022-12-16T10:58:25.590Z,153.23
2022-12-16T11:01:11.554Z,151.10
2022-12-16T11:03:58.791Z,150.43
2022-12-16T11:06:53.734Z,146.90
2022-12-16T11:09:43.089Z,147.40
2022-12-16T11:12:45.904Z,135.63
2022-12-16T11:15:44.022Z,139.63
2022-12-16T11:18:38.876Z,141.83
2022-12-16T11:21:30.318Z,138.50
2022-12-16T11:24:39.266Z,136.07
2022-12-16T11:27:33.356Z,134.53
2022-12-16T11:30:44.256Z,150.37
2022-12-16T11:33:41.782Z,149.03
2022-12-16T11:36:34.731Z,147.33
2022-12-16T11:39:20.595Z,159.57
2022-12-16T11:42:09.227Z,151.23
2022-12-16T11:45:01.289Z,151.70
2022-12-16T11:48:12.266Z,161.63
2022-12-16T11:51:06.975Z,156.03
2022-12-16T11:53:58.690Z,145.37
2022-12-16T11:56:53.868Z,150.70
2022-12-16T11:59:55.338Z,198.90
2022-12-16T12:03:03.119Z,186.90
2022-12-16T12:05:57.989Z,172.63
2022-12-16T12:09:06.930Z,141.40
2022-12-16T12:12:03.768Z,149.00
2022-12-16T12:15:24.234Z,152.37
2022-12-16T12:18:23.934Z,152.90
2022-12-16T12:21:38.346Z,145.13
2022-12-16T12:24:40.768Z,151.97
2022-12-16T12:27:47.590Z,157.03
2022-12-16T12:30:36.705Z,150.83
2022-12-16T12:33:37.376Z,149.43
2022-12-16T12:36:37.989Z,166.63
2022-12-16T12:39:32.710Z,158.50
2022-12-16T12:42:49.225Z,162.67
2022-12-16T12:45:49.588Z,163.10
2022-12-16T12:48:45.171Z,173.13
2022-12-16T12:51:56.447Z,185.70
2022-12-16T12:54:54.269Z,175.73
2022-12-16T12:57:44.462Z,172.80
2022-12-16T13:00:39.572Z,162.80
2022-12-16T13:03:52.444Z,166.13
2022-12-16T13:06:39.810Z,169.57
2022-12-16T13:09:49.150Z,170.87
2022-12-16T13:12:34.706Z,154.83
2022-12-16T13:15:26.365Z,168.30
2022-12-16T13:18:18.254Z,174.93
2022-12-16T13:21:17.043Z,160.73
2022-12-16T13:24:03.958Z,158.33
2022-12-16T13:26:52.979Z,153.50
2022-12-16T13:29:57.105Z,157.37
2022-12-16T13:32:44.163Z,153.20
2022-12-16T13:35:29.867Z,165.87
2022-12-16T13:38:17.590Z,158.13
2022-12-16T13:41:17.169Z,164.53
2022-12-16T13:44:17.113Z,159.30
2022-12-16T13:47:11.266Z,146.40
2022-12-16T13:50:08.695Z,147.43
2022-12-16T13:53:13.923Z,152.97
2022-12-16T13:56:11.315Z,155.60
2022-12-16T13:59:01.790Z,159.33
2022-12-16T14:02:13.850Z,148.53
2022-12-16T14:05:05.243Z,155.60
2022-12-16T14:07:54.231Z,157.70
2022-12-16T14:10:56.584Z,154.70
2022-12-16T14:14:11.095Z,146.40
2022-12-16T14:17:14.181Z,161.63
2022-12-16T14:20:15.883Z,156.33
2022-12-16T14:23:46.816Z,159.30
2022-12-16T14:26:22.324Z,164.03
2022-12-16T14:29:08.403Z,162.00
2022-12-16T14:31:54.915Z,170.67
2022-12-16T14:34:48.859Z,169.13
2022-12-16T14:37:35.415Z,170.40
2022-12-16T14:40:23.022Z,156.87
2022-12-16T14:43:12.924Z,157.70
2022-12-16T14:46:07.943Z,166.30
2022-12-16T14:48:56.144Z,164.23
2022-12-16T14:51:45.097Z,167.43
2022-12-16T14:54:33.532Z,166.50
2022-12-16T14:57:19.210Z,168.83
2022-12-16T15:00:05.174Z,167.50
2022-12-16T15:03:02.986Z,150.67
2022-12-16T15:05:53.402Z,169.10
2022-12-16T15:08:40.112Z,154.40
2022-12-16T15:11:31.140Z,176.23
2022-12-16T15:14:19.155Z,176.17
2022-12-16T15:17:06.829Z,163.87
2022-12-16T15:20:11.965Z,158.43
2022-12-16T15:23:03.849Z,163.20
2022-12-16T15:25:50.062Z,153.50
2022-12-16T15:29:02.796Z,157.77
2022-12-16T15:31:56.826Z,164.07
2022-12-16T15:35:06.490Z,157.17
2022-12-16T15:38:03.810Z,160.43
2022-12-16T15:40:52.311Z,155.70
2022-12-16T15:43:56.120Z,163.43
2022-12-16T15:46:46.643Z,155.23
2022-12-16T15:49:46.683Z,160.83
2022-12-16T15:53:00.206Z,159.80
2022-12-16T15:55:50.466Z,158.37
2022-12-16T15:58:46.268Z,151.87
2022-12-16T16:01:38.327Z,163.30
2022-12-16T16:04:38.967Z,158.77
2022-12-16T16:07:34.755Z,160.80
2022-12-16T16:10:42.006Z,157.60
2022-12-16T16:13:29.240Z,162.83
2022-12-16T16:16:15.077Z,163.07
2022-12-16T16:19:02.001Z,163.33
2022-12-16T16:21:48.363Z,154.80
2022-12-16T16:24:34.205Z,163.70
2022-12-16T16:27:21.045Z,159.50
2022-12-16T16:30:06.598Z,162.53
2022-12-16T16:32:51.922Z,161.37
2022-12-16T16:35:37.428Z,156.10
2022-12-16T16:38:22.847Z,160.57
2022-12-16T16:41:08.349Z,166.80
2022-12-16T16:43:53.742Z,165.13
2022-12-16T16:46:39.402Z,172.47
2022-12-16T16:49:28.748Z,176.43
2022-12-16T16:52:14.522Z,171.27
2022-12-16T16:54:59.962Z,179.03
2022-12-16T16:57:50.858Z,172.63
2022-12-16T17:00:36.720Z,174.43
2022-12-16T17:03:22.863Z,173.13
2022-12-16T17:06:08.298Z,167.33
2022-12-16T17:08:53.926Z,183.97
2022-12-16T17:11:40.879Z,172.60
2022-12-16T17:14:37.209Z,150.80
2022-12-16T17:17:23.591Z,163.80
2022-12-16T17:20:09.481Z,163.40
2022-12-16T17:22:54.979Z,159.40
2022-12-16T17:25:40.582Z,152.60
2022-12-16T17:28:27.745Z,169.80
2022-12-16T17:31:13.350Z,156.93
2022-12-16T17:33:58.493Z,150.50
2022-12-16T17:36:44.020Z,157.13
2022-12-16T17:39:30.364Z,168.17
2022-12-16T17:42:16.203Z,165.17
2022-12-16T17:45:01.681Z,167.27
2022-12-16T17:47:47.251Z,161.37
2022-12-16T17:50:32.602Z,160.87
2022-12-16T17:53:18.467Z,165.47
2022-12-16T17:56:03.695Z,160.63
2022-12-16T17:58:55.075Z,149.57
2022-12-16T18:01:41.220Z,166.87
2022-12-16T18:04:26.957Z,153.77
2022-12-16T18:07:12.932Z,151.70
2022-12-16T18:09:58.743Z,160.97
2022-12-16T18:12:45.297Z,155.77
2022-12-16T18:15:31.313Z,160.40
2022-12-16T18:18:16.701Z,167.90
2022-12-16T18:21:02.512Z,148.50
2022-12-16T18:23:48.603Z,162.43
2022-12-16T18:26:33.995Z,152.70
2022-12-16T18:29:19.443Z,162.07
2022-12-16T18:32:07.065Z,151.03
2022-12-16T18:34:52.521Z,168.27
2022-12-16T18:37:38.342Z,166.57
2022-12-16T18:40:24.280Z,168.10
2022-12-16T18:43:10.078Z,159.00
2022-12-16T18:45:55.329Z,157.50
2022-12-16T18:48:41.174Z,157.60
2022-12-16T18:51:26.975Z,152.80
2022-12-16T18:54:12.537Z,164.93
2022-12-16T18:56:58.373Z,155.00
2022-12-16T18:59:43.881Z,151.13
2022-12-16T19:02:29.368Z,159.13
2022-12-16T19:05:15.426Z,145.93
2022-12-16T19:08:00.818Z,149.77
2022-12-16T19:10:46.586Z,154.27
2022-12-16T19:13:34.648Z,150.90
2022-12-16T19:16:20.436Z,157.77
2022-12-16T19:19:06.360Z,161.97
2022-12-16T19:21:56.241Z,167.23
2022-12-16T19:24:43.130Z,162.63
2022-12-16T19:27:29.023Z,163.10
2022-12-16T19:30:14.485Z,144.87
2022-12-16T19:33:07.155Z,154.57
2022-12-16T19:35:53.707Z,149.27
2022-12-16T19:38:39.435Z,149.97
2022-12-16T19:41:35.371Z,144.07
2022-12-16T19:44:24.075Z,148.57
2022-12-16T19:47:09.624Z,157.33
2022-12-16T19:49:56.170Z,150.93
2022-12-16T19:52:41.853Z,152.17
2022-12-16T19:55:27.905Z,147.63
2022-12-16T19:58:13.336Z,161.73
2022-12-16T20:00:59.241Z,147.07
2022-12-16T20:03:45.089Z,142.30
2022-12-16T20:06:31.528Z,148.30
2022-12-16T20:09:16.804Z,152.07
2022-12-16T20:12:03.040Z,141.53
2022-12-16T20:14:51.719Z,139.10
2022-12-16T20:17:37.624Z,136.40
2022-12-16T20:20:23.561Z,122.80
2022-12-16T20:23:09.100Z,132.27
2022-12-16T20:25:56.519Z,134.87
2022-12-16T20:28:42.403Z,123.63
2022-12-16T20:31:27.680Z,127.23
2022-12-16T20:34:16.950Z,114.83
2022-12-16T20:37:03.218Z,114.33
2022-12-16T20:39:56.516Z,115.43
2022-12-16T20:42:44.040Z,111.60
2022-12-16T20:45:30.224Z,111.03
2022-12-16T20:48:15.806Z,114.90
2022-12-16T20:51:01.575Z,106.93
2022-12-16T20:53:47.236Z,109.43
2022-12-16T20:56:32.633Z,112.97
2022-12-16T20:59:18.288Z,113.03
2022-12-16T21:05:09.458Z,111.67
2022-12-16T21:07:54.983Z,105.23
2022-12-16T21:10:42.318Z,102.33
2022-12-16T21:13:34.242Z,103.27
2022-12-16T21:16:22.834Z,87.17
2022-12-16T21:19:13.033Z,96.87
2022-12-16T21:21:58.510Z,93.73
2022-12-16T21:24:44.104Z,94.37
2022-12-16T21:27:29.411Z,84.40
2022-12-16T21:30:14.747Z,89.73
2022-12-16T21:33:00.359Z,89.60
2022-12-16T21:35:46.123Z,86.40
2022-12-16T21:38:31.867Z,86.93
2022-12-16T21:41:17.536Z,86.80
2022-12-16T21:44:02.769Z,81.93
2022-12-16T21:46:48.642Z,91.53
2022-12-16T21:49:33.928Z,88.90
2022-12-16T21:52:19.418Z,83.43
2022-12-16T21:55:05.445Z,87.03
2022-12-16T21:57:51.635Z,88.90
2022-12-16T22:00:39.025Z,78.50
2022-12-16T22:03:24.701Z,92.47
2022-12-16T22:06:10.152Z,87.50
2022-12-16T22:08:56.192Z,80.23
2022-12-16T22:11:41.836Z,85.27
2022-12-16T22:14:27.455Z,81.23
2022-12-16T22:17:12.997Z,78.70
2022-12-16T22:19:58.919Z,84.40
2022-12-16T22:22:44.189Z,85.27
2022-12-16T22:25:29.985Z,80.97
2022-12-16T22:28:17.076Z,91.80
2022-12-16T22:31:02.508Z,78.37
2022-12-16T22:33:47.714Z,87.90
2022-12-16T22:36:33.594Z,92.43
2022-12-16T22:39:18.823Z,90.43
2022-12-16T22:42:04.339Z,86.80
2022-12-16T22:44:49.769Z,80.30
2022-12-16T22:47:35.350Z,88.10
2022-12-16T22:50:20.535Z,86.07
2022-12-16T22:53:06.416Z,92.60
2022-12-16T22:55:52.120Z,92.57
2022-12-16T22:58:37.803Z,86.97
2022-12-16T23:01:27.230Z,90.60
2022-12-16T23:04:12.755Z,88.67
2022-12-16T23:06:58.585Z,90.67
2022-12-16T23:10:01.106Z,86.80
2022-12-16T23:12:46.421Z,90.90
2022-12-16T23:15:32.987Z,86.00
2022-12-16T23:18:18.588Z,85.03
2022-12-16T23:21:09.658Z,81.83
2022-12-16T23:23:56.985Z,74.47
2022-12-16T23:26:42.842Z,83.77
2022-12-16T23:29:28.311Z,80.60
2022-12-16T23:32:14.253Z,80.30
2022-12-16T23:34:59.917Z,77.57
2022-12-16T23:37:45.437Z,73.50
2022-12-16T23:40:30.857Z,79.93
2022-12-16T23:43:16.636Z,77.30
2022-12-16T23:46:02.762Z,84.60
2022-12-16T23:48:48.569Z,84.33
2022-12-16T23:51:34.388Z,82.43
2022-12-16T23:54:19.901Z,77.10
2022-12-16T23:57:05.206Z,76.60
2022-12-16T23:59:50.628Z,78.03
